sensor_id;sensor_type;location;lat;lon;timestamp;pressure;altitude;pressure_sealevel;temperature;humidity
72409;BME280;60402;48.082;11.628;2023-05-09T00:01:53;95686.91;;;10.04;100.00
72409;BME280;60402;48.082;11.628;2023-05-09T00:04:38;95693.06;;;9.99;100.00
72409;BME280;60402;48.082;11.628;2023-05-09T00:07:24;95660.72;;;9.84;100.00
72409;BME280;60402;48.082;11.628;2023-05-09T00:10:10;95676.03;;;10.03;100.00
72409;BME280;60402;48.082;11.628;2023-05-09T00:12:56;95682.75;;;10.09;100.00
72409;BME280;60402;48.082;11.628;2023-05-09T00:15:43;95663.75;;;9.93;100.00
72409;BME280;60402;48.082;11.628;2023-05-09T00:18:28;95653.25;;;9.93;100.00
72409;BME280;60402;48.082;11.628;2023-05-09T00:21:15;95669.78;;;10.11;100.00
72409;BME280;60402;48.082;11.628;2023-05-09T00:24:01;95683.25;;;10.23;100.00
72409;BME280;60402;48.082;11.628;2023-05-09T00:26:46;95667.47;;;10.06;100.00
72409;BME280;60402;48.082;11.628;2023-05-09T00:29:32;95662.50;;;9.94;100.00
72409;BME280;60402;48.082;11.628;2023-05-09T00:32:18;95676.31;;;10.08;100.00
72409;BME280;60402;48.082;11.628;2023-05-09T00:35:04;95671.84;;;9.91;100.00
72409;BME280;60402;48.082;11.628;2023-05-09T00:37:49;95665.63;;;9.80;100.00
72409;BME280;60402;48.082;11.628;2023-05-09T00:40:35;95667.22;;;9.81;100.00
72409;BME280;60402;48.082;11.628;2023-05-09T00:43:21;95655.94;;;9.61;100.00
72409;BME280;60402;48.082;11.628;2023-05-09T00:46:06;95654.44;;;9.56;100.00
72409;BME280;60402;48.082;11.628;2023-05-09T00:48:53;95647.34;;;9.48;100.00
72409;BME280;60402;48.082;11.628;2023-05-09T00:51:40;95658.41;;;9.59;100.00
72409;BME280;60402;48.082;11.628;2023-05-09T00:54:26;95640.31;;;9.56;100.00
72409;BME280;60402;48.082;11.628;2023-05-09T00:57:12;95660.91;;;9.73;100.00
72409;BME280;60402;48.082;11.628;2023-05-09T00:59:57;95644.94;;;9.66;100.00
72409;BME280;60402;48.082;11.628;2023-05-09T01:02:47;95660.47;;;9.55;100.00
72409;BME280;60402;48.082;11.628;2023-05-09T01:05:45;95643.00;;;9.43;100.00
72409;BME280;60402;48.082;11.628;2023-05-09T01:08:44;95655.78;;;9.48;100.00
72409;BME280;60402;48.082;11.628;2023-05-09T01:11:35;95641.75;;;9.25;100.00
72409;BME280;60402;48.082;11.628;2023-05-09T01:14:32;95650.50;;;9.30;100.00
72409;BME280;60402;48.082;11.628;2023-05-09T01:26:20;95628.19;;;8.96;100.00
72409;BME280;60402;48.082;11.628;2023-05-09T01:29:37;95636.59;;;9.00;100.00
72409;BME280;60402;48.082;11.628;2023-05-09T01:32:26;95652.81;;;8.92;100.00
72409;BME280;60402;48.082;11.628;2023-05-09T01:35:13;95637.34;;;8.80;100.00
72409;BME280;60402;48.082;11.628;2023-05-09T01:37:59;95625.38;;;8.73;100.00
72409;BME280;60402;48.082;11.628;2023-05-09T01:40:49;95615.50;;;8.61;100.00
72409;BME280;60402;48.082;11.628;2023-05-09T01:43:37;95629.13;;;8.66;100.00
72409;BME280;60402;48.082;11.628;2023-05-09T01:46:24;95613.63;;;8.54;100.00
72409;BME280;60402;48.082;11.628;2023-05-09T01:49:12;95632.41;;;8.61;100.00
72409;BME280;60402;48.082;11.628;2023-05-09T01:52:00;95600.63;;;8.37;100.00
72409;BME280;60402;48.082;11.628;2023-05-09T01:54:49;95628.53;;;8.51;100.00
72409;BME280;60402;48.082;11.628;2023-05-09T01:57:36;95612.25;;;8.39;100.00
72409;BME280;60402;48.082;11.628;2023-05-09T02:00:23;95626.84;;;8.30;100.00
72409;BME280;60402;48.082;11.628;2023-05-09T02:03:09;95619.41;;;8.16;100.00
72409;BME280;60402;48.082;11.628;2023-05-09T02:05:55;95596.59;;;7.84;100.00
72409;BME280;60402;48.082;11.628;2023-05-09T02:08:42;95610.00;;;8.00;100.00
72409;BME280;60402;48.082;11.628;2023-05-09T02:11:28;95592.81;;;7.94;100.00
72409;BME280;60402;48.082;11.628;2023-05-09T02:14:14;95596.69;;;7.77;100.00
72409;BME280;60402;48.082;11.628;2023-05-09T02:17:00;95599.13;;;7.75;100.00
72409;BME280;60402;48.082;11.628;2023-05-09T02:19:50;95628.25;;;7.91;100.00
72409;BME280;60402;48.082;11.628;2023-05-09T02:22:36;95592.03;;;7.93;100.00
72409;BME280;60402;48.082;11.628;2023-05-09T02:25:23;95621.63;;;8.05;100.00
72409;BME280;60402;48.082;11.628;2023-05-09T02:28:09;95595.25;;;7.65;100.00
72409;BME280;60402;48.082;11.628;2023-05-09T02:30:57;95625.81;;;7.63;100.00
72409;BME280;60402;48.082;11.628;2023-05-09T02:33:45;95625.66;;;7.43;100.00
72409;BME280;60402;48.082;11.628;2023-05-09T02:36:32;95611.38;;;7.30;100.00
72409;BME280;60402;48.082;11.628;2023-05-09T02:39:18;95590.59;;;7.21;100.00
72409;BME280;60402;48.082;11.628;2023-05-09T02:42:09;95586.75;;;7.07;100.00
72409;BME280;60402;48.082;11.628;2023-05-09T02:44:55;95607.03;;;7.22;100.00
72409;BME280;60402;48.082;11.628;2023-05-09T02:47:41;95606.59;;;7.24;100.00
72409;BME280;60402;48.082;11.628;2023-05-09T02:50:26;95604.47;;;7.35;100.00
72409;BME280;60402;48.082;11.628;2023-05-09T02:53:12;95590.81;;;7.33;100.00
72409;BME280;60402;48.082;11.628;2023-05-09T02:55:57;95578.19;;;7.18;100.00
72409;BME280;60402;48.082;11.628;2023-05-09T02:58:43;95572.69;;;7.38;100.00
72409;BME280;60402;48.082;11.628;2023-05-09T03:01:35;95586.97;;;7.54;100.00
72409;BME280;60402;48.082;11.628;2023-05-09T03:04:20;95566.19;;;7.45;100.00
72409;BME280;60402;48.082;11.628;2023-05-09T03:07:06;95560.97;;;7.43;100.00
72409;BME280;60402;48.082;11.628;2023-05-09T03:09:52;95559.78;;;7.44;100.00
72409;BME280;60402;48.082;11.628;2023-05-09T03:12:38;95583.91;;;7.72;100.00
72409;BME280;60402;48.082;11.628;2023-05-09T03:15:24;95573.06;;;7.71;100.00
72409;BME280;60402;48.082;11.628;2023-05-09T03:18:10;95556.91;;;7.48;100.00
72409;BME280;60402;48.082;11.628;2023-05-09T03:20:56;95572.97;;;7.47;100.00
72409;BME280;60402;48.082;11.628;2023-05-09T03:23:42;95572.44;;;7.59;100.00
72409;BME280;60402;48.082;11.628;2023-05-09T03:26:28;95575.25;;;7.59;100.00
72409;BME280;60402;48.082;11.628;2023-05-09T03:29:13;95572.00;;;7.61;100.00
72409;BME280;60402;48.082;11.628;2023-05-09T03:31:59;95575.59;;;7.61;100.00
72409;BME280;60402;48.082;11.628;2023-05-09T03:34:44;95571.31;;;7.53;100.00
72409;BME280;60402;48.082;11.628;2023-05-09T03:37:30;95556.13;;;7.47;100.00
72409;BME280;60402;48.082;11.628;2023-05-09T03:40:16;95563.34;;;7.48;100.00
72409;BME280;60402;48.082;11.628;2023-05-09T03:43:02;95567.22;;;7.58;100.00
72409;BME280;60402;48.082;11.628;2023-05-09T03:45:47;95554.91;;;7.48;100.00
72409;BME280;60402;48.082;11.628;2023-05-09T03:48:33;95587.50;;;7.73;100.00
72409;BME280;60402;48.082;11.628;2023-05-09T03:51:19;95570.38;;;7.63;100.00
72409;BME280;60402;48.082;11.628;2023-05-09T03:54:05;95572.00;;;7.61;100.00
72409;BME280;60402;48.082;11.628;2023-05-09T03:56:51;95585.09;;;7.71;100.00
72409;BME280;60402;48.082;11.628;2023-05-09T03:59:36;95563.25;;;7.55;100.00
72409;BME280;60402;48.082;11.628;2023-05-09T04:02:22;95572.44;;;7.59;100.00
72409;BME280;60402;48.082;11.628;2023-05-09T04:05:08;95572.50;;;7.52;100.00
72409;BME280;60402;48.082;11.628;2023-05-09T04:07:53;95575.66;;;7.58;100.00
72409;BME280;60402;48.082;11.628;2023-05-09T04:10:39;95587.16;;;7.40;100.00
72409;BME280;60402;48.082;11.628;2023-05-09T04:13:25;95571.00;;;7.13;100.00
72409;BME280;60402;48.082;11.628;2023-05-09T04:16:11;95588.88;;;7.30;100.00
72409;BME280;60402;48.082;11.628;2023-05-09T04:18:56;95571.59;;;7.32;100.00
72409;BME280;60402;48.082;11.628;2023-05-09T04:21:42;95572.94;;;7.51;100.00
72409;BME280;60402;48.082;11.628;2023-05-09T04:24:27;95578.81;;;7.63;100.00
72409;BME280;60402;48.082;11.628;2023-05-09T04:27:13;95553.97;;;7.58;100.00
72409;BME280;60402;48.082;11.628;2023-05-09T04:29:59;95577.81;;;7.77;100.00
72409;BME280;60402;48.082;11.628;2023-05-09T04:32:44;95583.25;;;7.88;100.00
72409;BME280;60402;48.082;11.628;2023-05-09T04:35:30;95594.25;;;8.06;100.00
72409;BME280;60402;48.082;11.628;2023-05-09T04:38:16;95561.72;;;8.05;100.00
72409;BME280;60402;48.082;11.628;2023-05-09T04:41:01;95574.09;;;8.34;100.00
72409;BME280;60402;48.082;11.628;2023-05-09T04:43:47;95579.72;;;8.38;100.00
72409;BME280;60402;48.082;11.628;2023-05-09T04:46:32;95583.56;;;8.48;100.00
72409;BME280;60402;48.082;11.628;2023-05-09T04:49:18;95574.88;;;8.62;100.00
72409;BME280;60402;48.082;11.628;2023-05-09T04:52:04;95565.72;;;8.78;100.00
72409;BME280;60402;48.082;11.628;2023-05-09T04:54:49;95571.22;;;8.85;100.00
72409;BME280;60402;48.082;11.628;2023-05-09T04:57:35;95561.56;;;8.62;100.00
72409;BME280;60402;48.082;11.628;2023-05-09T05:00:21;95557.31;;;8.74;100.00
72409;BME280;60402;48.082;11.628;2023-05-09T05:03:07;95580.06;;;9.07;100.00
72409;BME280;60402;48.082;11.628;2023-05-09T05:05:52;95552.56;;;8.71;100.00
72409;BME280;60402;48.082;11.628;2023-05-09T05:08:38;95573.75;;;8.56;100.00
72409;BME280;60402;48.082;11.628;2023-05-09T05:11:24;95564.09;;;8.57;100.00
72409;BME280;60402;48.082;11.628;2023-05-09T05:14:09;95577.84;;;8.75;100.00
72409;BME280;60402;48.082;11.628;2023-05-09T05:16:55;95540.53;;;8.47;100.00
72409;BME280;60402;48.082;11.628;2023-05-09T05:19:41;95551.69;;;8.74;100.00
72409;BME280;60402;48.082;11.628;2023-05-09T05:22:26;95561.84;;;8.91;100.00
72409;BME280;60402;48.082;11.628;2023-05-09T05:25:12;95560.88;;;8.98;100.00
72409;BME280;60402;48.082;11.628;2023-05-09T05:27:58;95554.97;;;8.92;100.00
72409;BME280;60402;48.082;11.628;2023-05-09T05:30:43;95555.47;;;8.87;100.00
72409;BME280;60402;48.082;11.628;2023-05-09T05:33:29;95549.91;;;8.84;100.00
72409;BME280;60402;48.082;11.628;2023-05-09T05:36:15;95543.28;;;8.94;100.00
72409;BME280;60402;48.082;11.628;2023-05-09T05:39:00;95553.09;;;9.26;100.00
72409;BME280;60402;48.082;11.628;2023-05-09T05:41:46;95571.03;;;9.55;100.00
72409;BME280;60402;48.082;11.628;2023-05-09T05:44:32;95555.56;;;9.24;100.00
72409;BME280;60402;48.082;11.628;2023-05-09T05:47:17;95565.44;;;9.71;100.00
72409;BME280;60402;48.082;11.628;2023-05-09T05:50:04;95565.19;;;9.82;100.00
72409;BME280;60402;48.082;11.628;2023-05-09T05:52:56;95566.00;;;9.99;100.00
72409;BME280;60402;48.082;11.628;2023-05-09T05:55:41;95560.00;;;9.97;100.00
72409;BME280;60402;48.082;11.628;2023-05-09T05:58:27;95543.31;;;9.86;100.00
72409;BME280;60402;48.082;11.628;2023-05-09T06:01:13;95551.03;;;10.02;100.00
72409;BME280;60402;48.082;11.628;2023-05-09T06:03:58;95543.72;;;10.54;99.26
72409;BME280;60402;48.082;11.628;2023-05-09T06:06:44;95543.31;;;11.42;94.49
72409;BME280;60402;48.082;11.628;2023-05-09T06:09:30;95520.84;;;12.53;86.78
72409;BME280;60402;48.082;11.628;2023-05-09T06:12:16;95539.91;;;12.27;88.86
72409;BME280;60402;48.082;11.628;2023-05-09T06:15:02;95532.31;;;12.50;89.01
72409;BME280;60402;48.082;11.628;2023-05-09T06:17:50;95527.44;;;12.50;87.15
72409;BME280;60402;48.082;11.628;2023-05-09T06:20:35;95527.69;;;12.43;89.37
72409;BME280;60402;48.082;11.628;2023-05-09T06:23:21;95519.66;;;12.03;89.34
72409;BME280;60402;48.082;11.628;2023-05-09T06:26:07;95525.09;;;12.23;91.04
72409;BME280;60402;48.082;11.628;2023-05-09T06:28:52;95523.97;;;13.03;87.79
72409;BME280;60402;48.082;11.628;2023-05-09T06:31:38;95526.16;;;13.34;86.20
72409;BME280;60402;48.082;11.628;2023-05-09T06:34:25;95516.94;;;13.42;86.56
72409;BME280;60402;48.082;11.628;2023-05-09T06:37:10;95524.78;;;13.60;86.07
72409;BME280;60402;48.082;11.628;2023-05-09T06:39:56;95524.97;;;13.97;84.58
72409;BME280;60402;48.082;11.628;2023-05-09T06:42:41;95515.66;;;13.96;84.42
72409;BME280;60402;48.082;11.628;2023-05-09T06:45:27;95522.91;;;13.44;86.03
72409;BME280;60402;48.082;11.628;2023-05-09T06:48:13;95511.94;;;14.49;83.21
72409;BME280;60402;48.082;11.628;2023-05-09T06:50:59;95487.28;;;15.83;76.52
72409;BME280;60402;48.082;11.628;2023-05-09T06:53:44;95502.84;;;16.25;69.94
72409;BME280;60402;48.082;11.628;2023-05-09T06:56:30;95504.09;;;16.57;69.58
72409;BME280;60402;48.082;11.628;2023-05-09T06:59:16;95498.38;;;17.14;68.03
72409;BME280;60402;48.082;11.628;2023-05-09T07:02:02;95493.56;;;18.83;62.43
72409;BME280;60402;48.082;11.628;2023-05-09T07:04:47;95502.00;;;20.31;57.05
72409;BME280;60402;48.082;11.628;2023-05-09T07:07:33;95504.41;;;21.61;53.04
72409;BME280;60402;48.082;11.628;2023-05-09T07:10:19;95478.13;;;21.31;50.90
72409;BME280;60402;48.082;11.628;2023-05-09T07:13:06;95498.56;;;21.44;51.25
72409;BME280;60402;48.082;11.628;2023-05-09T07:15:52;95496.84;;;21.15;51.36
72409;BME280;60402;48.082;11.628;2023-05-09T07:18:37;95496.78;;;20.04;54.62
72409;BME280;60402;48.082;11.628;2023-05-09T07:21:23;95496.84;;;19.57;56.64
72409;BME280;60402;48.082;11.628;2023-05-09T07:24:08;95490.03;;;19.14;57.51
72409;BME280;60402;48.082;11.628;2023-05-09T07:26:54;95479.66;;;19.83;56.61
72409;BME280;60402;48.082;11.628;2023-05-09T07:29:40;95472.94;;;20.18;55.37
72409;BME280;60402;48.082;11.628;2023-05-09T07:32:25;95457.09;;;21.74;51.09
72409;BME280;60402;48.082;11.628;2023-05-09T07:35:13;95475.69;;;20.70;52.73
72409;BME280;60402;48.082;11.628;2023-05-09T07:37:58;95464.75;;;21.99;49.90
72409;BME280;60402;48.082;11.628;2023-05-09T07:40:44;95468.25;;;23.45;46.06
72409;BME280;60402;48.082;11.628;2023-05-09T07:43:30;95466.72;;;24.63;43.75
72409;BME280;60402;48.082;11.628;2023-05-09T07:46:15;95475.03;;;25.70;42.24
72409;BME280;60402;48.082;11.628;2023-05-09T07:49:01;95454.81;;;25.89;40.29
72409;BME280;60402;48.082;11.628;2023-05-09T07:51:46;95465.22;;;23.04;45.79
72409;BME280;60402;48.082;11.628;2023-05-09T07:54:32;95455.31;;;22.04;48.64
72409;BME280;60402;48.082;11.628;2023-05-09T07:57:18;95454.25;;;22.80;47.87
72409;BME280;60402;48.082;11.628;2023-05-09T08:00:04;95446.47;;;20.66;52.90
72409;BME280;60402;48.082;11.628;2023-05-09T08:02:51;95465.31;;;20.78;53.84
72409;BME280;60402;48.082;11.628;2023-05-09T08:05:36;95427.91;;;21.21;53.13
72409;BME280;60402;48.082;11.628;2023-05-09T08:08:22;95442.72;;;20.54;53.77
72409;BME280;60402;48.082;11.628;2023-05-09T08:11:08;95435.63;;;23.15;48.56
72409;BME280;60402;48.082;11.628;2023-05-09T08:13:53;95431.75;;;24.42;46.36
72409;BME280;60402;48.082;11.628;2023-05-09T08:16:39;95424.50;;;25.71;42.26
72409;BME280;60402;48.082;11.628;2023-05-09T08:19:25;95421.47;;;26.33;39.90
72409;BME280;60402;48.082;11.628;2023-05-09T08:22:17;95419.97;;;25.57;41.66
72409;BME280;60402;48.082;11.628;2023-05-09T08:25:03;95407.06;;;27.18;38.30
72409;BME280;60402;48.082;11.628;2023-05-09T08:27:49;95410.81;;;26.09;40.53
72409;BME280;60402;48.082;11.628;2023-05-09T08:30:35;95428.31;;;25.22;42.36
72409;BME280;60402;48.082;11.628;2023-05-09T08:33:20;95425.09;;;25.26;43.49
72409;BME280;60402;48.082;11.628;2023-05-09T08:36:06;95424.16;;;24.63;45.62
72409;BME280;60402;48.082;11.628;2023-05-09T08:38:52;95418.44;;;24.58;45.19
72409;BME280;60402;48.082;11.628;2023-05-09T08:41:38;95404.75;;;23.98;46.45
72409;BME280;60402;48.082;11.628;2023-05-09T08:44:24;95412.16;;;23.41;48.11
72409;BME280;60402;48.082;11.628;2023-05-09T08:47:10;95392.19;;;23.49;49.10
72409;BME280;60402;48.082;11.628;2023-05-09T08:49:57;95392.72;;;22.83;49.54
72409;BME280;60402;48.082;11.628;2023-05-09T08:52:43;95388.97;;;21.14;53.61
72409;BME280;60402;48.082;11.628;2023-05-09T08:55:29;95371.81;;;22.66;51.95
72409;BME280;60402;48.082;11.628;2023-05-09T08:58:14;95387.25;;;23.43;49.68
72409;BME280;60402;48.082;11.628;2023-05-09T09:01:01;95372.53;;;23.53;49.33
72409;BME280;60402;48.082;11.628;2023-05-09T09:03:51;95380.22;;;22.47;50.35
72409;BME280;60402;48.082;11.628;2023-05-09T09:06:38;95377.31;;;22.58;50.11
72409;BME280;60402;48.082;11.628;2023-05-09T09:09:25;95359.06;;;20.78;54.90
72409;BME280;60402;48.082;11.628;2023-05-09T09:12:13;95355.13;;;21.58;53.28
72409;BME280;60402;48.082;11.628;2023-05-09T09:15:02;95356.25;;;20.95;54.14
72409;BME280;60402;48.082;11.628;2023-05-09T09:17:50;95350.56;;;21.12;54.08
72409;BME280;60402;48.082;11.628;2023-05-09T09:20:49;95361.56;;;21.13;53.83
72409;BME280;60402;48.082;11.628;2023-05-09T09:23:38;95352.09;;;20.96;55.79
72409;BME280;60402;48.082;11.628;2023-05-09T09:26:25;95337.31;;;21.31;55.06
72409;BME280;60402;48.082;11.628;2023-05-09T09:29:14;95352.16;;;21.24;56.65
72409;BME280;60402;48.082;11.628;2023-05-09T09:32:05;95335.78;;;21.41;56.65
72409;BME280;60402;48.082;11.628;2023-05-09T09:35:03;95315.41;;;21.79;54.69
72409;BME280;60402;48.082;11.628;2023-05-09T09:37:56;95336.72;;;21.10;54.90
72409;BME280;60402;48.082;11.628;2023-05-09T09:41:03;95336.44;;;20.43;56.47
72409;BME280;60402;48.082;11.628;2023-05-09T09:43:49;95323.81;;;20.72;58.77
72409;BME280;60402;48.082;11.628;2023-05-09T09:46:52;95295.78;;;20.50;58.36
72409;BME280;60402;48.082;11.628;2023-05-09T09:49:43;95302.09;;;20.17;58.08
72409;BME280;60402;48.082;11.628;2023-05-09T09:52:30;95307.97;;;19.97;59.70
72409;BME280;60402;48.082;11.628;2023-05-09T09:55:17;95305.50;;;20.21;59.27
72409;BME280;60402;48.082;11.628;2023-05-09T09:58:15;95307.25;;;20.07;60.39
72409;BME280;60402;48.082;11.628;2023-05-09T10:01:09;95298.09;;;19.34;61.56
72409;BME280;60402;48.082;11.628;2023-05-09T10:03:55;95303.22;;;19.25;63.66
72409;BME280;60402;48.082;11.628;2023-05-09T10:06:50;95279.16;;;19.17;64.99
72409;BME280;60402;48.082;11.628;2023-05-09T10:09:37;95287.19;;;19.12;64.02
72409;BME280;60402;48.082;11.628;2023-05-09T10:12:23;95272.34;;;19.40;63.97
72409;BME280;60402;48.082;11.628;2023-05-09T10:15:09;95280.81;;;19.29;63.82
72409;BME280;60402;48.082;11.628;2023-05-09T10:17:57;95284.31;;;19.38;64.75
72409;BME280;60402;48.082;11.628;2023-05-09T10:20:43;95255.00;;;19.55;63.31
72409;BME280;60402;48.082;11.628;2023-05-09T10:23:31;95266.38;;;19.44;64.77
72409;BME280;60402;48.082;11.628;2023-05-09T10:26:19;95269.63;;;19.25;64.71
72409;BME280;60402;48.082;11.628;2023-05-09T10:29:09;95235.09;;;19.40;63.72
72409;BME280;60402;48.082;11.628;2023-05-09T10:31:58;95241.88;;;19.42;63.14
72409;BME280;60402;48.082;11.628;2023-05-09T10:34:51;95241.47;;;19.55;63.07
72409;BME280;60402;48.082;11.628;2023-05-09T10:37:38;95234.22;;;19.28;65.12
72409;BME280;60402;48.082;11.628;2023-05-09T10:40:24;95229.34;;;19.34;63.63
72409;BME280;60402;48.082;11.628;2023-05-09T10:43:10;95234.63;;;19.84;64.81
72409;BME280;60402;48.082;11.628;2023-05-09T10:45:57;95223.16;;;19.47;62.69
72409;BME280;60402;48.082;11.628;2023-05-09T10:48:43;95229.03;;;19.64;62.79
72409;BME280;60402;48.082;11.628;2023-05-09T10:51:29;95207.28;;;19.52;62.64
72409;BME280;60402;48.082;11.628;2023-05-09T10:54:26;95221.50;;;20.15;65.60
72409;BME280;60402;48.082;11.628;2023-05-09T10:57:17;95214.16;;;19.60;63.13
72409;BME280;60402;48.082;11.628;2023-05-09T11:00:03;95210.31;;;19.37;62.74
72409;BME280;60402;48.082;11.628;2023-05-09T11:03:05;95188.28;;;19.49;63.76
72409;BME280;60402;48.082;11.628;2023-05-09T11:05:56;95180.44;;;19.86;62.86
72409;BME280;60402;48.082;11.628;2023-05-09T11:08:41;95185.47;;;20.03;61.87
72409;BME280;60402;48.082;11.628;2023-05-09T11:11:28;95182.78;;;19.82;62.76
72409;BME280;60402;48.082;11.628;2023-05-09T11:14:30;95173.34;;;19.76;60.51
72409;BME280;60402;48.082;11.628;2023-05-09T11:20:09;95166.09;;;19.81;60.53
72409;BME280;60402;48.082;11.628;2023-05-09T11:22:56;95155.47;;;19.98;63.01
72409;BME280;60402;48.082;11.628;2023-05-09T11:25:44;95156.41;;;19.78;61.72
72409;BME280;60402;48.082;11.628;2023-05-09T11:28:33;95146.84;;;19.92;61.27
72409;BME280;60402;48.082;11.628;2023-05-09T11:31:19;95135.47;;;19.61;63.60
72409;BME280;60402;48.082;11.628;2023-05-09T11:34:05;95121.00;;;19.81;61.83
72409;BME280;60402;48.082;11.628;2023-05-09T11:37:06;95131.63;;;19.75;60.95
72409;BME280;60402;48.082;11.628;2023-05-09T11:40:01;95128.66;;;19.53;62.86
72409;BME280;60402;48.082;11.628;2023-05-09T11:42:51;95130.47;;;19.56;64.55
72409;BME280;60402;48.082;11.628;2023-05-09T11:45:39;95112.91;;;19.85;62.54
72409;BME280;60402;48.082;11.628;2023-05-09T11:48:25;95115.97;;;19.71;62.83
72409;BME280;60402;48.082;11.628;2023-05-09T11:51:15;95121.53;;;19.42;65.02
72409;BME280;60402;48.082;11.628;2023-05-09T11:54:03;95119.63;;;19.71;63.32
72409;BME280;60402;48.082;11.628;2023-05-09T11:56:49;95107.47;;;19.87;61.91
72409;BME280;60402;48.082;11.628;2023-05-09T11:59:37;95095.97;;;19.76;61.57
72409;BME280;60402;48.082;11.628;2023-05-09T12:02:22;95097.28;;;19.86;61.59
72409;BME280;60402;48.082;11.628;2023-05-09T12:05:10;95109.31;;;19.96;61.79
72409;BME280;60402;48.082;11.628;2023-05-09T12:08:01;95098.41;;;20.06;61.39
72409;BME280;60402;48.082;11.628;2023-05-09T12:10:48;95084.84;;;20.12;61.43
72409;BME280;60402;48.082;11.628;2023-05-09T12:13:33;95078.03;;;19.92;61.44
72409;BME280;60402;48.082;11.628;2023-05-09T12:16:19;95080.72;;;20.19;60.94
72409;BME280;60402;48.082;11.628;2023-05-09T12:19:08;95074.72;;;20.33;61.92
72409;BME280;60402;48.082;11.628;2023-05-09T12:21:58;95051.25;;;20.46;61.21
72409;BME280;60402;48.082;11.628;2023-05-09T12:24:44;95070.81;;;20.31;59.97
72409;BME280;60402;48.082;11.628;2023-05-09T12:27:30;95054.13;;;20.35;60.80
72409;BME280;60402;48.082;11.628;2023-05-09T12:30:17;95037.19;;;20.54;60.45
72409;BME280;60402;48.082;11.628;2023-05-09T12:33:03;95054.16;;;20.63;59.50
72409;BME280;60402;48.082;11.628;2023-05-09T12:38:54;95031.47;;;20.48;59.97
72409;BME280;60402;48.082;11.628;2023-05-09T12:41:44;95039.03;;;20.68;60.09
72409;BME280;60402;48.082;11.628;2023-05-09T12:44:30;95028.59;;;20.54;59.90
72409;BME280;60402;48.082;11.628;2023-05-09T12:47:15;95030.66;;;20.42;59.71
72409;BME280;60402;48.082;11.628;2023-05-09T12:50:03;95018.38;;;20.41;60.38
72409;BME280;60402;48.082;11.628;2023-05-09T12:52:50;95032.78;;;20.53;59.92
72409;BME280;60402;48.082;11.628;2023-05-09T12:55:40;95002.47;;;20.29;61.02
72409;BME280;60402;48.082;11.628;2023-05-09T12:58:31;95007.97;;;20.38;60.45
72409;BME280;60402;48.082;11.628;2023-05-09T13:01:25;95004.78;;;20.08;60.25
72409;BME280;60402;48.082;11.628;2023-05-09T13:04:11;94996.47;;;20.10;61.46
72409;BME280;60402;48.082;11.628;2023-05-09T13:06:57;94991.25;;;20.20;60.21
72409;BME280;60402;48.082;11.628;2023-05-09T13:09:54;94990.19;;;20.46;59.52
72409;BME280;60402;48.082;11.628;2023-05-09T13:12:41;94975.34;;;20.25;58.62
72409;BME280;60402;48.082;11.628;2023-05-09T13:15:32;94990.25;;;20.57;59.22
72409;BME280;60402;48.082;11.628;2023-05-09T13:18:18;94997.78;;;20.60;55.83
72409;BME280;60402;48.082;11.628;2023-05-09T13:21:04;94995.41;;;20.41;56.10
72409;BME280;60402;48.082;11.628;2023-05-09T13:23:50;94975.09;;;20.28;57.17
72409;BME280;60402;48.082;11.628;2023-05-09T13:26:36;94970.66;;;20.10;57.28
72409;BME280;60402;48.082;11.628;2023-05-09T13:29:22;94961.75;;;20.08;57.93
72409;BME280;60402;48.082;11.628;2023-05-09T13:32:07;94948.19;;;20.37;56.95
72409;BME280;60402;48.082;11.628;2023-05-09T13:34:53;94945.88;;;20.52;57.42
72409;BME280;60402;48.082;11.628;2023-05-09T13:37:38;94943.81;;;20.47;56.53
72409;BME280;60402;48.082;11.628;2023-05-09T13:40:24;94955.50;;;20.43;57.09
72409;BME280;60402;48.082;11.628;2023-05-09T13:43:10;94931.78;;;20.54;54.92
72409;BME280;60402;48.082;11.628;2023-05-09T13:45:56;94931.78;;;20.65;54.33
72409;BME280;60402;48.082;11.628;2023-05-09T13:48:41;94938.56;;;20.57;52.92
72409;BME280;60402;48.082;11.628;2023-05-09T13:51:28;94922.91;;;20.41;51.93
72409;BME280;60402;48.082;11.628;2023-05-09T13:54:14;94938.31;;;20.66;52.88
72409;BME280;60402;48.082;11.628;2023-05-09T13:57:03;94936.97;;;20.73;51.55
72409;BME280;60402;48.082;11.628;2023-05-09T13:59:50;94908.81;;;20.65;50.23
72409;BME280;60402;48.082;11.628;2023-05-09T14:02:35;94909.81;;;20.74;52.16
72409;BME280;60402;48.082;11.628;2023-05-09T14:05:22;94921.56;;;20.76;51.03
72409;BME280;60402;48.082;11.628;2023-05-09T14:08:08;94915.25;;;20.88;50.93
72409;BME280;60402;48.082;11.628;2023-05-09T14:10:54;94904.34;;;20.76;48.90
72409;BME280;60402;48.082;11.628;2023-05-09T14:13:39;94902.44;;;21.01;51.94
72409;BME280;60402;48.082;11.628;2023-05-09T14:16:25;94906.25;;;21.20;52.76
72409;BME280;60402;48.082;11.628;2023-05-09T14:19:11;94895.63;;;21.04;54.09
72409;BME280;60402;48.082;11.628;2023-05-09T14:21:57;94908.41;;;21.03;52.66
72409;BME280;60402;48.082;11.628;2023-05-09T14:24:43;94906.84;;;21.02;50.52
72409;BME280;60402;48.082;11.628;2023-05-09T14:27:28;94897.47;;;21.01;50.31
72409;BME280;60402;48.082;11.628;2023-05-09T14:30:14;94895.41;;;20.90;49.91
72409;BME280;60402;48.082;11.628;2023-05-09T14:33:00;94888.94;;;20.84;48.69
72409;BME280;60402;48.082;11.628;2023-05-09T14:35:46;94889.19;;;20.81;48.24
72409;BME280;60402;48.082;11.628;2023-05-09T14:38:31;94867.31;;;20.66;48.62
72409;BME280;60402;48.082;11.628;2023-05-09T14:41:18;94874.25;;;20.99;49.99
72409;BME280;60402;48.082;11.628;2023-05-09T14:44:03;94880.38;;;20.62;51.60
72409;BME280;60402;48.082;11.628;2023-05-09T14:46:49;94867.25;;;20.78;52.32
72409;BME280;60402;48.082;11.628;2023-05-09T14:49:35;94872.03;;;20.41;53.40